Saint Vincent, MN (56755)

6:35 PM CDT on August 01, 2014 (GMT -0500)
Hallock Municipal (KHCO) Elev 820 ft | 48.75 °N, 96.94 °W | Change Station

Current weather conditions updated 22 minutes ago

Clear
Clear
81 °F
Feels Like 81 °F
N
0
Wind Variable Wind from North

Tomorrow is forecast to be nearly the same temperature as today. Isolated thunderstorms.

Today
High -- | Low -- °F
--% Chance of Precip.
Yesterday
High -- | Low -- °F
Precip. -- in
6:01 AM 9:07 PM
Waxing Crescent, 30% visible
Pressure 30.05 in
Visibility 10.0 miles
Clouds Clear
Heat Index 81 °F
Dew Point 57 °F
Humidity 45%
Rainfall 0.00 in
Snow Depth Not available.
UV 2 out of 12
Pollen 8.00 out of 12
Air Quality Not available.
Flu Activity Not available.
METAR KHCO 012313Z AUTO 00000KT 10SM CLR 27/14 A3005 RMK AO2

More Conditions Fewer Conditions

Pressure 30.05 in
Visibility 10.0 miles
Clouds Clear
Heat Index 81 °F
Dew Point 57 °F
Humidity 45%
Rainfall 0.00 in
Snow Depth Not available.
UV 2 out of 12
Pollen 8.00 out of 12
Air Quality Not available.
Flu Activity Not available.
METAR KHCO 012313Z AUTO 00000KT 10SM CLR 27/14 A3005 RMK AO2

More Conditions Fewer Conditions

10-Day Weather Forecast

Almanac

Astronomy

Aug. 01, 2014 Rise Set
Actual Time 6:01 AM CDT 9:07 PM CDT
Civil Twilight 5:24 AM CDT 9:44 PM CDT
Nautical Twilight 4:35 AM CDT 10:32 PM CDT
Astronomical Twilight 3:34 AM CDT 11:33 PM CDT
Moon 11:59 AM CDT 11:18 PM CDT
Length of Visible Light 16h 20m
Length of Day
15h 05m
Tomorrow will be 2m 50s shorter.
Waxing Crescent, 30% of the Moon is Illuminated
Today
Waxing Crescent
Aug 3
First Quarter
Aug 10
Full
Aug 17
Last Quarter
Aug 25
New

Today's Extremes

State Highs State Lows

Community

WunderPhotos

Upload Photos

1,739,759 photos uploaded!

Nearby

Snow Depth

Station Depth Elevation
No new snow has been reported.

Earthquake Activity

City Distance Mag. Time & Date
No recent earthquake activity has been reported nearby.
Minimum magnitude displayed is 2.5.

Coastal Water Temperatures

Place Temperature
No Stations Reporting

Nearby Weather Stations

Station Location Temp. Heat Index Dew Point Humidity Wind Precip. Elev Updated Type
St Jean Baptiste MB, Saint Jean Baptiste 81.5 °F 83 °F 63 °F 53% West  at  0.0 mph - / hr 771 ft 6:25 PM CDT Normal

Show More Stations Show Fewer Stations